Time;durP1;ratioP1;P1;durP2;ratioP2;P2;SDS_P1;SDS_P2;PMS_P1;PMS_P2;Temp;Humidity;BMP_temperature;BMP_pressure;BME280_temperature;BME280_humidity;BME280_pressure;Samples;Min_cycle;Max_cycle;Signal;HPM_P1;HPM_P2
2022/06/20 00:00:43;;;;;;;15.23;9.40;;;22.60;67.80;;;;;;5131944;27;20201;-87
2022/06/20 00:03:17;;;;;;;20.50;9.93;;;22.60;68.00;;;;;;5124984;27;20192;-87
2022/06/20 00:05:47;;;;;;;16.17;9.48;;;22.60;67.60;;;;;;5131603;27;20199;-87
2022/06/20 00:08:14;;;;;;;22.63;10.02;;;22.60;67.50;;;;;;5121434;27;20219;-86
2022/06/20 00:10:44;;;;;;;16.80;9.70;;;22.60;67.60;;;;;;5130568;27;20586;-87
2022/06/20 00:13:25;;;;;;;16.45;9.25;;;22.60;68.00;;;;;;5137304;27;20203;-87
2022/06/20 00:15:56;;;;;;;13.30;9.23;;;22.50;67.80;;;;;;5129841;27;20187;-87
2022/06/20 00:18:23;;;;;;;16.80;9.43;;;22.50;68.70;;;;;;5142272;27;20228;-87
2022/06/20 00:20:59;;;;;;;15.50;9.40;;;22.50;68.30;;;;;;5134885;27;20206;-87
2022/06/20 00:23:26;;;;;;;17.17;9.23;;;22.60;68.90;;;;;;5142589;27;20190;-87
2022/06/20 00:25:59;;;;;;;21.17;9.75;;;22.60;69.50;;;;;;5124434;27;20195;-87
2022/06/20 00:28:26;;;;;;;17.23;9.05;;;22.60;69.80;;;;;;5140478;27;20203;-86
2022/06/20 00:30:55;;;;;;;14.73;9.20;;;22.60;69.50;;;;;;5136527;27;20560;-88
2022/06/20 00:33:41;;;;;;;17.02;10.20;;;22.50;69.80;;;;;;5131866;27;20208;-87
2022/06/20 00:36:08;;;;;;;16.02;9.43;;;22.40;70.60;;;;;;5142942;27;20214;-86
2022/06/20 00:38:36;;;;;;;17.88;9.73;;;22.40;71.70;;;;;;5135560;27;20223;-89
2022/06/20 00:41:17;;;;;;;16.65;9.30;;;22.40;70.70;;;;;;5142038;27;20225;-88
2022/06/20 00:43:47;;;;;;;19.38;9.88;;;22.30;70.70;;;;;;5142244;27;20210;-88
2022/06/20 00:46:25;;;;;;;18.75;9.90;;;22.30;71.90;;;;;;5142766;27;20212;-87
2022/06/20 00:49:11;;;;;;;19.20;10.00;;;22.30;72.30;;;;;;5139306;27;20246;-90
2022/06/20 00:52:20;;;;;;;16.80;9.70;;;22.30;72.40;;;;;;5135964;27;20195;-86
2022/06/20 00:54:52;;;;;;;17.48;9.98;;;22.20;72.70;;;;;;5133166;27;20628;-84
2022/06/20 00:57:25;;;;;;;19.42;9.65;;;22.10;73.30;;;;;;5134713;27;20192;-87
2022/06/20 01:00:07;;;;;;;16.92;9.88;;;22.00;75.00;;;;;;5140761;27;20230;-87
2022/06/20 01:02:41;;;;;;;16.67;9.65;;;22.00;74.90;;;;;;5143728;27;20660;-86
2022/06/20 01:07:44;;;;;;;17.88;10.13;;;22.00;76.20;;;;;;5130888;27;20179;-89
2022/06/20 01:10:19;;;;;;;16.13;10.27;;;22.00;75.30;;;;;;5138816;27;20210;-87
2022/06/20 01:13:03;;;;;;;14.00;9.98;;;22.00;75.10;;;;;;5139374;27;20191;-86
2022/06/20 01:15:36;;;;;;;14.88;10.38;;;21.90;75.60;;;;;;5142252;27;20637;-86
2022/06/20 01:18:17;;;;;;;21.42;10.20;;;21.80;76.40;;;;;;5138127;27;20198;-87
2022/06/20 01:20:56;;;;;;;17.92;10.05;;;21.80;78.60;;;;;;5121892;27;20199;-86
2022/06/20 01:23:42;;;;;;;16.05;10.00;;;21.90;78.40;;;;;;5139173;27;20198;-88
2022/06/20 01:26:35;;;;;;;21.98;11.07;;;21.90;77.50;;;;;;5141811;27;20196;-87
2022/06/20 01:29:07;;;;;;;16.52;9.80;;;21.80;77.00;;;;;;5137029;27;20276;-86
2022/06/20 01:31:41;;;;;;;17.10;10.27;;;21.70;77.80;;;;;;5137984;27;20198;-87
2022/06/20 01:34:08;;;;;;;16.20;9.82;;;21.60;78.40;;;;;;5116052;27;20200;-85
2022/06/20 01:39:24;;;;;;;14.48;9.90;;;21.50;80.10;;;;;;5139629;27;20285;-86
2022/06/20 01:44:45;;;;;;;21.67;9.90;;;21.60;80.40;;;;;;5147818;27;20204;-86
2022/06/20 01:47:23;;;;;;;21.00;10.40;;;21.60;79.50;;;;;;5140299;27;20660;-86
2022/06/20 01:50:05;;;;;;;20.30;10.27;;;21.70;79.60;;;;;;5135029;27;21177;-86
2022/06/20 01:52:36;;;;;;;12.88;9.90;;;21.70;79.40;;;;;;5143432;27;20290;-87
2022/06/20 01:55:15;;;;;;;17.17;9.73;;;21.70;79.80;;;;;;5132458;27;20280;-87
2022/06/20 01:57:44;;;;;;;15.93;9.93;;;21.60;79.30;;;;;;5124181;27;20234;-86
2022/06/20 02:00:22;;;;;;;17.38;9.95;;;21.60;79.30;;;;;;5132243;27;20218;-87
2022/06/20 02:03:03;;;;;;;18.67;9.85;;;21.50;79.50;;;;;;5127834;27;20273;-87
2022/06/20 02:05:36;;;;;;;16.52;9.95;;;21.60;80.50;;;;;;5139459;27;20249;-87
2022/06/20 02:08:08;;;;;;;17.15;9.90;;;21.50;80.20;;;;;;5143142;27;20201;-87
2022/06/20 02:10:43;;;;;;;17.38;9.95;;;21.60;80.00;;;;;;5130564;27;20210;-87
2022/06/20 02:13:40;;;;;;;21.42;10.07;;;21.50;80.70;;;;;;5131198;27;20213;-86
2022/06/20 02:16:17;;;;;;;15.32;8.95;;;21.50;78.90;;;;;;5139898;27;20203;-87
2022/06/20 02:18:52;;;;;;;18.77;9.32;;;21.50;78.60;;;;;;5123842;27;20241;-88
2022/06/20 02:21:27;;;;;;;16.33;9.35;;;21.50;78.60;;;;;;5137756;27;20193;-86
2022/06/20 02:24:10;;;;;;;16.60;8.60;;;21.50;78.50;;;;;;5131627;27;20196;-88
2022/06/20 02:27:02;;;;;;;22.15;8.90;;;21.50;75.50;;;;;;5138948;27;20282;-87
2022/06/20 02:29:31;;;;;;;21.13;9.27;;;21.60;73.50;;;;;;5137666;27;20283;-88
2022/06/20 02:32:07;;;;;;;18.35;8.68;;;21.60;72.90;;;;;;5140645;27;20311;-86
2022/06/20 02:34:36;;;;;;;21.67;8.68;;;21.70;72.00;;;;;;5136598;27;20195;-87
2022/06/20 02:37:07;;;;;;;14.90;8.38;;;21.70;70.60;;;;;;5132474;27;20229;-87
2022/06/20 02:39:36;;;;;;;20.67;8.82;;;21.70;69.90;;;;;;5139260;27;20640;-90
2022/06/20 02:42:08;;;;;;;19.52;8.50;;;21.70;70.10;;;;;;5125378;27;20227;-87
2022/06/20 02:44:36;;;;;;;15.48;8.55;;;21.70;70.60;;;;;;5127453;27;20192;-87
2022/06/20 02:47:09;;;;;;;16.27;8.27;;;21.70;71.30;;;;;;5134442;27;20200;-86
2022/06/20 02:49:42;;;;;;;17.83;8.30;;;21.70;72.40;;;;;;5151725;27;20289;-88
2022/06/20 02:52:22;;;;;;;18.25;7.85;;;21.80;67.60;;;;;;5121540;27;20192;-86
2022/06/20 02:55:07;;;;;;;18.67;8.88;;;21.80;64.70;;;;;;5135575;27;20204;-86
2022/06/20 02:57:39;;;;;;;14.75;8.25;;;21.80;65.30;;;;;;5133631;27;20195;-88
2022/06/20 03:00:13;;;;;;;21.63;8.93;;;21.80;63.00;;;;;;5131866;27;20220;-88
2022/06/20 03:02:46;;;;;;;14.45;7.78;;;21.80;61.90;;;;;;5146326;27;20206;-87
2022/06/20 03:05:13;;;;;;;16.98;8.05;;;21.80;61.60;;;;;;5133259;27;20195;-88
2022/06/20 03:07:49;;;;;;;15.70;9.38;;;21.80;63.20;;;;;;5116385;27;20200;-88
2022/06/20 03:10:24;;;;;;;17.15;7.28;;;21.80;63.30;;;;;;5127042;27;20204;-86
2022/06/20 03:12:55;;;;;;;13.38;7.80;;;21.80;63.20;;;;;;5129811;27;20202;-87
2022/06/20 03:15:22;;;;;;;13.60;7.82;;;21.80;63.30;;;;;;5121800;27;20191;-86
2022/06/20 03:17:53;;;;;;;17.88;8.02;;;21.80;63.40;;;;;;5135089;27;20202;-85
2022/06/20 03:20:25;;;;;;;16.25;8.43;;;21.80;62.40;;;;;;5143371;27;20230;-86
2022/06/20 03:23:00;;;;;;;16.90;8.43;;;21.80;61.80;;;;;;5127797;27;20192;-86
2022/06/20 03:25:27;;;;;;;15.55;8.50;;;21.70;61.30;;;;;;5142149;27;20203;-86
2022/06/20 03:27:54;;;;;;;18.27;8.15;;;21.70;63.10;;;;;;5141200;27;20199;-86
2022/06/20 03:30:27;;;;;;;17.38;8.43;;;21.70;64.00;;;;;;5137908;28;20662;-86
2022/06/20 03:32:56;;;;;;;13.35;8.40;;;21.70;64.30;;;;;;5140114;28;20209;-90
2022/06/20 03:35:24;;;;;;;17.85;8.90;;;21.70;67.60;;;;;;5141174;27;20214;-86
2022/06/20 03:38:05;;;;;;;13.48;7.93;;;21.70;65.80;;;;;;5140253;27;20191;-86
2022/06/20 03:40:43;;;;;;;17.58;8.30;;;21.70;66.90;;;;;;5153465;27;20226;-86
2022/06/20 03:43:13;;;;;;;17.67;8.35;;;21.70;66.70;;;;;;5130926;27;20197;-87
2022/06/20 03:45:46;;;;;;;14.05;8.27;;;21.70;66.70;;;;;;5148238;27;20203;-88
2022/06/20 03:48:40;;;;;;;15.65;8.43;;;21.70;66.70;;;;;;5137978;27;20187;-87
2022/06/20 03:51:15;;;;;;;16.45;8.38;;;21.70;67.50;;;;;;5128089;27;20249;-84
2022/06/20 03:53:53;;;;;;;16.20;8.25;;;21.70;68.40;;;;;;5145455;27;20218;-87
2022/06/20 03:56:43;;;;;;;17.08;8.50;;;21.70;66.30;;;;;;5141099;27;20281;-87
2022/06/20 03:59:22;;;;;;;12.85;7.53;;;21.70;66.10;;;;;;5144635;27;20207;-87
2022/06/20 04:02:04;;;;;;;17.58;8.45;;;21.70;66.30;;;;;;5137770;27;20189;-87
2022/06/20 04:04:52;;;;;;;14.52;8.55;;;21.70;67.20;;;;;;5137322;27;20554;-88
2022/06/20 04:07:29;;;;;;;21.40;8.85;;;21.70;67.00;;;;;;5130325;27;20257;-87
2022/06/20 04:12:59;;;;;;;20.58;8.63;;;21.70;65.50;;;;;;5138565;27;20201;-87
2022/06/20 04:15:36;;;;;;;12.65;8.00;;;21.80;64.60;;;;;;5129328;27;20201;-89
2022/06/20 04:18:30;;;;;;;19.25;8.23;;;21.80;65.30;;;;;;5138053;27;20625;-86
2022/06/20 04:21:10;;;;;;;14.60;8.38;;;22.00;65.60;;;;;;5132163;27;20584;-88
2022/06/20 04:23:43;;;;;;;16.13;9.13;;;22.00;65.00;;;;;;5127302;27;20198;-88
2022/06/20 04:26:15;;;;;;;16.80;8.77;;;22.00;66.70;;;;;;5137144;27;20195;-87
2022/06/20 04:28:47;;;;;;;22.40;8.68;;;22.10;65.10;;;;;;5137954;27;20293;-88
2022/06/20 04:31:36;;;;;;;15.93;8.20;;;22.30;65.30;;;;;;5134319;27;20265;-89
2022/06/20 04:34:13;;;;;;;18.85;8.40;;;22.30;64.80;;;;;;5130680;27;20274;-90
2022/06/20 04:37:00;;;;;;;14.95;8.23;;;22.40;64.30;;;;;;5135932;27;20208;-87
2022/06/20 04:39:48;;;;;;;15.52;8.25;;;22.50;63.50;;;;;;5130991;27;20234;-87
2022/06/20 04:42:22;;;;;;;17.05;8.80;;;22.60;63.50;;;;;;5133694;27;20215;-89
2022/06/20 04:45:20;;;;;;;16.83;8.63;;;22.70;63.30;;;;;;5117870;27;20196;-86
2022/06/20 04:47:56;;;;;;;19.48;8.68;;;22.90;62.70;;;;;;5121842;27;20248;-86
2022/06/20 04:50:26;;;;;;;18.83;8.45;;;23.10;59.90;;;;;;5135031;27;20188;-83
2022/06/20 04:53:00;;;;;;;16.10;8.27;;;23.30;57.60;;;;;;5128991;27;20199;-86
2022/06/20 04:55:54;;;;;;;17.67;8.38;;;23.40;53.90;;;;;;5154686;27;20560;-83
2022/06/20 04:58:34;;;;;;;21.67;9.15;;;23.60;50.20;;;;;;5142408;27;20210;-87
2022/06/20 05:01:03;;;;;;;18.08;8.60;;;23.90;48.60;;;;;;5131946;27;20208;-88
2022/06/20 05:03:55;;;;;;;16.38;7.97;;;24.10;46.60;;;;;;5125389;27;20484;-81
2022/06/20 05:06:33;;;;;;;18.27;8.43;;;24.40;44.40;;;;;;5138472;27;20191;-81
2022/06/20 05:09:41;;;;;;;15.27;7.82;;;24.60;42.60;;;;;;5142013;27;20214;-80
2022/06/20 05:12:20;;;;;;;14.30;7.68;;;24.70;41.40;;;;;;5141260;27;20273;-83
2022/06/20 05:14:57;;;;;;;18.65;8.10;;;24.80;40.00;;;;;;5144673;27;20191;-83
2022/06/20 05:18:01;;;;;;;21.42;8.90;;;24.80;38.80;;;;;;5129754;27;20202;-82
2022/06/20 05:20:34;;;;;;;18.92;8.02;;;24.90;39.60;;;;;;5148568;27;20214;-82
2022/06/20 05:26:25;;;;;;;21.08;8.52;;;24.70;38.10;;;;;;5129238;27;20182;-81
2022/06/20 05:28:58;;;;;;;15.95;8.23;;;24.60;38.90;;;;;;5133677;27;20195;-83
2022/06/20 05:31:31;;;;;;;20.30;9.63;;;24.60;39.70;;;;;;5134220;27;20191;-84
2022/06/20 05:34:02;;;;;;;25.23;8.07;;;24.70;38.90;;;;;;5135914;27;20290;-86
2022/06/20 05:36:34;;;;;;;15.60;8.85;;;24.70;36.60;;;;;;5127564;27;20195;-84
2022/06/20 05:39:08;;;;;;;23.08;8.63;;;24.70;36.60;;;;;;5130850;27;20196;-83
2022/06/20 05:41:35;;;;;;;22.23;7.82;;;24.80;36.10;;;;;;5131527;27;20290;-83
2022/06/20 05:44:04;;;;;;;14.93;7.75;;;25.10;36.30;;;;;;5132625;27;20199;-83
2022/06/20 05:46:42;;;;;;;19.15;8.07;;;25.30;33.70;;;;;;5142698;27;20210;-84
2022/06/20 05:49:25;;;;;;;15.77;7.65;;;25.40;32.20;;;;;;5152685;27;20654;-84
2022/06/20 05:52:08;;;;;;;15.20;6.95;;;25.40;31.70;;;;;;5147211;27;20195;-84
2022/06/20 05:54:43;;;;;;;21.35;7.45;;;25.40;31.50;;;;;;5126472;27;20211;-84
2022/06/20 05:57:17;;;;;;;21.77;8.07;;;25.50;30.90;;;;;;5131550;27;20245;-84
2022/06/20 05:59:53;;;;;;;16.67;7.65;;;25.60;30.60;;;;;;5135791;27;20215;-84
2022/06/20 06:02:27;;;;;;;21.90;7.63;;;25.60;29.60;;;;;;5126529;27;20253;-83
2022/06/20 06:05:08;;;;;;;20.58;7.32;;;25.80;29.00;;;;;;5130122;27;20203;-84
2022/06/20 06:07:40;;;;;;;18.35;7.63;;;26.10;29.40;;;;;;5128992;27;20662;-83
2022/06/20 06:10:29;;;;;;;15.20;7.57;;;26.20;28.30;;;;;;5121053;27;20207;-84
2022/06/20 06:13:11;;;;;;;23.45;7.88;;;26.00;28.00;;;;;;5116560;27;20192;-84
2022/06/20 06:18:58;;;;;;;18.65;7.53;;;25.70;28.60;;;;;;5070965;28;20201;-84
2022/06/20 06:21:27;;;;;;;16.55;7.25;;;25.70;29.20;;;;;;5072558;28;20716;-83
2022/06/20 06:23:54;;;;;;;18.00;6.97;;;25.80;29.30;;;;;;5076489;28;20198;-84
2022/06/20 06:26:30;;;;;;;17.13;7.10;;;25.80;29.30;;;;;;5078122;28;20763;-83
2022/06/20 06:28:57;;;;;;;14.70;6.88;;;26.00;28.00;;;;;;5077013;28;20201;-84
2022/06/20 06:31:29;;;;;;;20.63;7.72;;;26.10;27.60;;;;;;5073951;28;20211;-83
2022/06/20 06:34:01;;;;;;;17.40;7.43;;;26.40;28.00;;;;;;5078604;28;20739;-86
2022/06/20 06:36:41;;;;;;;17.33;7.43;;;26.50;27.20;;;;;;5083990;28;20732;-84
2022/06/20 06:39:15;;;;;;;17.90;7.65;;;26.50;26.20;;;;;;5079097;28;20200;-85
2022/06/20 06:41:51;;;;;;;14.65;7.20;;;26.50;27.20;;;;;;5073633;28;20229;-84
2022/06/20 06:44:19;;;;;;;20.55;8.07;;;26.50;27.70;;;;;;5078724;28;20759;-85
2022/06/20 06:46:51;;;;;;;17.02;7.25;;;26.60;26.60;;;;;;5076491;28;20739;-84
2022/06/20 06:49:29;;;;;;;18.33;6.95;;;26.60;26.90;;;;;;5084343;28;20197;-84
2022/06/20 06:52:06;;;;;;;14.07;7.30;;;26.70;27.20;;;;;;5079897;28;20300;-85
2022/06/20 06:54:49;;;;;;;17.85;7.55;;;26.70;27.30;;;;;;5082662;28;20200;-83
2022/06/20 06:57:21;;;;;;;16.05;7.85;;;26.60;27.30;;;;;;5152379;27;20734;-83
2022/06/20 07:00:21;;;;;;;18.13;6.95;;;26.50;27.50;;;;;;5148145;27;20572;-84
2022/06/20 07:02:54;;;;;;;15.98;7.60;;;26.30;29.20;;;;;;5135600;27;20195;-86
2022/06/20 07:05:33;;;;;;;15.20;7.63;;;26.10;28.70;;;;;;5141327;27;20187;-84
2022/06/20 07:08:06;;;;;;;13.23;7.22;;;26.10;29.50;;;;;;5128179;27;20206;-84
2022/06/20 07:10:39;;;;;;;20.15;7.38;;;26.00;30.00;;;;;;5132213;27;20199;-84
2022/06/20 07:13:22;;;;;;;19.35;7.15;;;26.00;30.10;;;;;;5135784;27;20199;-83
2022/06/20 07:16:16;;;;;;;20.45;7.70;;;26.40;29.10;;;;;;5130263;27;20204;-84
2022/06/20 07:18:47;;;;;;;14.63;6.95;;;26.60;26.60;;;;;;5127202;27;20287;-84
2022/06/20 07:21:18;;;;;;;14.95;6.90;;;26.50;26.80;;;;;;5125026;27;20211;-85
2022/06/20 07:23:50;;;;;;;14.93;7.15;;;26.30;27.30;;;;;;5131522;27;20259;-84
2022/06/20 07:26:21;;;;;;;16.42;7.28;;;26.20;28.80;;;;;;5135933;27;20206;-83
2022/06/20 07:28:53;;;;;;;18.45;7.15;;;26.10;28.30;;;;;;5137520;27;20199;-84
2022/06/20 07:31:28;;;;;;;10.23;6.70;;;26.20;28.00;;;;;;5137578;27;20206;-85
2022/06/20 07:34:03;;;;;;;14.13;7.05;;;26.30;27.70;;;;;;5134882;27;20194;-84
2022/06/20 07:36:35;;;;;;;13.35;6.82;;;26.30;26.40;;;;;;5133514;28;20210;-84
2022/06/20 07:39:06;;;;;;;22.05;7.05;;;26.60;25.40;;;;;;5135632;28;20207;-85
2022/06/20 07:41:41;;;;;;;17.35;7.57;;;26.80;24.90;;;;;;5135205;27;20238;-84
2022/06/20 07:44:13;;;;;;;14.93;6.68;;;27.30;24.80;;;;;;5130846;27;20186;-84
2022/06/20 07:46:44;;;;;;;19.55;6.65;;;27.70;23.80;;;;;;5128433;27;20207;-84
2022/06/20 07:49:21;;;;;;;14.95;6.88;;;28.30;22.50;;;;;;5134622;27;20199;-86
2022/06/20 07:51:52;;;;;;;10.60;6.05;;;28.50;22.20;;;;;;5125680;27;20206;-86
2022/06/20 07:54:34;;;;;;;12.05;7.03;;;28.90;22.30;;;;;;5124848;27;20190;-86
2022/06/20 07:57:06;;;;;;;17.40;7.00;;;29.50;20.60;;;;;;5126312;27;20284;-86
2022/06/20 08:00:04;;;;;;;15.45;7.07;;;30.00;19.60;;;;;;5130154;27;20206;-86
2022/06/20 08:02:44;;;;;;;16.80;7.53;;;29.90;19.20;;;;;;5128917;27;20244;-86
2022/06/20 08:05:25;;;;;;;15.88;7.25;;;29.80;21.50;;;;;;5123570;28;20195;-85
2022/06/20 08:08:07;;;;;;;20.30;7.88;;;29.40;21.80;;;;;;5123545;27;20211;-87
2022/06/20 08:10:37;;;;;;;15.77;7.65;;;29.10;22.40;;;;;;5123058;27;20203;-88
2022/06/20 08:13:10;;;;;;;15.43;7.05;;;29.00;22.80;;;;;;5126133;27;20603;-86
2022/06/20 08:15:54;;;;;;;17.35;7.35;;;28.70;22.90;;;;;;5137508;27;20223;-86
2022/06/20 08:18:24;;;;;;;14.07;6.75;;;28.70;21.70;;;;;;5122747;28;20201;-86
2022/06/20 08:21:09;;;;;;;16.92;6.72;;;28.50;20.30;;;;;;5128449;27;20679;-84
2022/06/20 08:23:41;;;;;;;16.77;6.88;;;28.50;20.40;;;;;;5129523;27;20212;-84
2022/06/20 08:26:12;;;;;;;12.65;6.35;;;28.50;20.00;;;;;;5129208;27;20223;-85
2022/06/20 08:29:12;;;;;;;13.52;6.22;;;28.50;20.30;;;;;;5133020;27;20200;-85
2022/06/20 08:31:44;;;;;;;14.02;6.13;;;28.70;21.10;;;;;;5129309;27;20202;-85
2022/06/20 08:34:18;;;;;;;18.15;6.30;;;28.70;20.50;;;;;;5132442;27;20191;-84
2022/06/20 08:36:54;;;;;;;9.85;5.40;;;28.90;19.70;;;;;;5129600;27;20218;-85
2022/06/20 08:39:40;;;;;;;19.48;5.82;;;28.70;18.90;;;;;;5127323;27;20207;-85
2022/06/20 08:42:36;;;;;;;14.77;5.47;;;29.20;18.60;;;;;;5122891;27;20223;-86
2022/06/20 08:45:35;;;;;;;13.88;5.75;;;29.90;18.30;;;;;;5068114;28;20198;-85
2022/06/20 08:48:55;;;;;;;12.57;5.80;;;30.10;16.70;;;;;;5033822;28;20198;-85
2022/06/20 08:52:09;;;;;;;13.20;5.55;;;30.10;16.70;;;;;;5029689;28;20662;-85
2022/06/20 08:54:59;;;;;;;18.40;6.53;;;29.40;16.90;;;;;;5024153;28;20213;-85
2022/06/20 08:57:42;;;;;;;13.88;5.60;;;29.40;16.50;;;;;;5026835;28;20309;-85
2022/06/20 09:00:17;;;;;;;16.67;5.78;;;29.80;16.50;;;;;;5032376;28;20199;-85
2022/06/20 09:03:21;;;;;;;16.45;5.32;;;30.80;17.00;;;;;;5030301;28;20212;-85
2022/06/20 09:06:08;;;;;;;13.15;5.57;;;31.40;14.40;;;;;;5029910;28;20393;-86
2022/06/20 09:09:04;;;;;;;14.52;5.68;;;31.60;14.20;;;;;;5028267;28;20714;-85
2022/06/20 09:11:50;;;;;;;16.83;5.97;;;32.40;14.40;;;;;;5019079;28;20222;-86
2022/06/20 09:14:49;;;;;;;11.38;5.85;;;33.60;11.40;;;;;;5029148;28;20198;-87
2022/06/20 09:17:23;;;;;;;11.00;5.45;;;35.50;9.00;;;;;;4959780;29;20749;-85
2022/06/20 09:20:07;;;;;;;13.38;5.93;;;36.10;6.90;;;;;;4953769;28;20759;-86
2022/06/20 09:22:55;;;;;;;15.38;5.75;;;37.50;6.10;;;;;;4981193;28;20227;-86
2022/06/20 09:25:40;;;;;;;12.13;5.60;;;37.50;4.40;;;;;;5035588;28;20193;-86
2022/06/20 09:28:28;;;;;;;10.57;5.63;;;36.90;4.90;;;;;;5058586;28;20583;-85
2022/06/20 09:31:04;;;;;;;17.48;5.40;;;35.50;6.80;;;;;;5060298;28;20204;-86
2022/06/20 09:33:43;;;;;;;11.18;5.40;;;34.40;8.20;;;;;;5055212;28;20201;-87
2022/06/20 09:36:47;;;;;;;14.18;5.57;;;34.10;9.10;;;;;;5045378;28;20437;-86
2022/06/20 09:42:45;;;;;;;13.98;5.10;;;32.50;10.70;;;;;;4971977;28;20319;-85
2022/06/20 09:45:22;;;;;;;14.32;4.90;;;32.40;11.80;;;;;;4978345;28;20207;-84
2022/06/20 09:47:59;;;;;;;14.57;4.82;;;31.90;12.90;;;;;;4964977;28;20208;-84
2022/06/20 09:50:36;;;;;;;9.82;4.97;;;31.90;12.90;;;;;;4975002;28;20212;-84
2022/06/20 09:53:29;;;;;;;11.15;5.15;;;31.80;12.00;;;;;;4975688;28;20564;-84
2022/06/20 09:56:23;;;;;;;12.00;4.80;;;32.10;12.50;;;;;;5043945;28;20189;-84
2022/06/20 09:58:58;;;;;;;10.70;5.10;;;32.40;12.30;;;;;;5046188;28;20244;-86
2022/06/20 10:01:40;;;;;;;11.60;5.30;;;33.50;10.80;;;;;;5048629;28;20601;-86
2022/06/20 10:04:21;;;;;;;12.13;5.30;;;33.60;10.20;;;;;;5052428;28;20193;-86
2022/06/20 10:07:14;;;;;;;12.57;5.03;;;32.70;11.50;;;;;;5054084;28;20260;-86
2022/06/20 10:10:04;;;;;;;10.57;4.78;;;32.20;12.30;;;;;;5042466;28;20197;-84
2022/06/20 10:12:54;;;;;;;10.10;4.97;;;32.20;12.30;;;;;;5041073;28;20296;-86
2022/06/20 10:15:46;;;;;;;11.02;5.30;;;33.20;11.40;;;;;;5046743;28;20209;-87
2022/06/20 10:18:31;;;;;;;11.65;4.90;;;33.00;10.50;;;;;;5122747;27;20195;-86
2022/06/20 10:21:18;;;;;;;8.63;4.93;;;32.70;11.10;;;;;;5127783;27;20217;-86
2022/06/20 10:24:10;;;;;;;11.25;4.60;;;32.00;11.60;;;;;;5125000;27;20195;-85
2022/06/20 10:27:04;;;;;;;11.05;4.60;;;31.40;12.30;;;;;;5145253;27;20649;-85
2022/06/20 10:29:56;;;;;;;9.25;4.45;;;31.00;13.60;;;;;;5123680;27;20557;-86
2022/06/20 10:32:53;;;;;;;16.15;4.90;;;31.00;14.00;;;;;;5122603;27;20206;-86
2022/06/20 10:35:27;;;;;;;8.40;4.43;;;30.80;13.50;;;;;;5137092;27;20186;-85
2022/06/20 10:38:02;;;;;;;14.85;5.22;;;30.50;13.10;;;;;;5138382;27;20224;-84
2022/06/20 10:40:36;;;;;;;12.25;5.22;;;30.40;13.90;;;;;;5138238;27;20201;-84
2022/06/20 10:43:10;;;;;;;13.32;4.70;;;29.80;14.80;;;;;;5133223;27;20214;-85
2022/06/20 10:46:01;;;;;;;11.45;5.22;;;29.90;16.60;;;;;;5134335;27;20210;-86
2022/06/20 10:49:05;;;;;;;16.45;5.00;;;30.10;15.50;;;;;;5115564;27;20199;-86
2022/06/20 10:51:57;;;;;;;10.85;5.13;;;31.20;15.30;;;;;;5126482;27;20202;-86
2022/06/20 10:54:44;;;;;;;9.38;4.10;;;32.80;12.00;;;;;;5121017;27;20187;-85
2022/06/20 10:57:41;;;;;;;10.32;5.20;;;34.00;9.00;;;;;;5120984;27;20210;-85
2022/06/20 11:00:11;;;;;;;10.52;4.95;;;34.30;9.10;;;;;;5128637;27;20199;-85
2022/06/20 11:03:09;;;;;;;9.77;5.10;;;34.70;9.10;;;;;;5134698;27;20621;-86
2022/06/20 11:05:47;;;;;;;8.48;4.80;;;34.60;7.70;;;;;;5119593;27;20201;-85
2022/06/20 11:08:29;;;;;;;7.15;4.90;;;34.50;9.20;;;;;;5132018;27;20196;-84
2022/06/20 11:11:17;;;;;;;12.88;4.82;;;34.10;9.50;;;;;;5125851;27;20325;-89
2022/06/20 11:13:52;;;;;;;7.95;4.60;;;33.50;11.70;;;;;;5134483;27;20209;-85
2022/06/20 11:16:32;;;;;;;7.30;4.18;;;33.20;12.40;;;;;;5135253;27;20206;-85
2022/06/20 11:19:15;;;;;;;15.88;4.65;;;32.50;10.30;;;;;;5129232;27;20198;-85
2022/06/20 11:21:54;;;;;;;12.05;4.38;;;32.20;11.00;;;;;;5124537;27;20203;-85
2022/06/20 11:24:37;;;;;;;11.57;5.07;;;32.00;11.60;;;;;;5129707;27;20289;-85
2022/06/20 11:27:22;;;;;;;10.00;4.15;;;31.90;13.10;;;;;;5129325;27;20585;-85
2022/06/20 11:30:08;;;;;;;13.27;4.72;;;32.00;11.80;;;;;;5125921;27;20205;-85
2022/06/20 11:32:49;;;;;;;11.25;4.35;;;31.90;13.30;;;;;;5130609;27;20199;-85
2022/06/20 11:35:34;;;;;;;10.35;4.60;;;31.80;13.20;;;;;;5130888;27;20560;-85
2022/06/20 11:38:18;;;;;;;10.02;4.55;;;31.70;12.00;;;;;;5124649;27;20196;-85
2022/06/20 11:41:03;;;;;;;9.85;4.47;;;31.60;13.60;;;;;;5122959;27;20215;-85
2022/06/20 11:44:06;;;;;;;8.50;4.43;;;31.70;13.60;;;;;;5128642;28;20195;-84
2022/06/20 11:46:53;;;;;;;12.20;4.88;;;31.50;13.70;;;;;;5130226;28;20188;-85
2022/06/20 11:49:35;;;;;;;9.85;4.70;;;31.30;12.50;;;;;;5128007;28;20202;-85
2022/06/20 11:52:20;;;;;;;13.02;4.38;;;31.10;12.80;;;;;;5132296;27;20195;-85
2022/06/20 11:54:59;;;;;;;11.82;4.80;;;31.20;15.10;;;;;;5123897;28;20195;-85
2022/06/20 11:57:39;;;;;;;15.60;4.80;;;31.00;13.70;;;;;;5126963;28;20198;-85
2022/06/20 12:00:12;;;;;;;13.02;4.63;;;31.00;14.90;;;;;;5124509;27;20195;-85
2022/06/20 12:02:50;;;;;;;11.52;4.50;;;31.20;14.40;;;;;;5146099;27;20313;-85
2022/06/20 12:05:33;;;;;;;11.13;4.80;;;31.20;15.70;;;;;;5135406;27;20907;-85
2022/06/20 12:08:08;;;;;;;7.82;4.53;;;31.50;13.70;;;;;;5128226;27;20259;-85
2022/06/20 12:11:23;;;;;;;10.45;5.15;;;31.50;13.10;;;;;;5130799;27;20191;-85
2022/06/20 12:14:05;;;;;;;13.10;4.80;;;31.50;13.40;;;;;;5127380;27;20262;-85
2022/06/20 12:16:48;;;;;;;11.02;4.93;;;31.50;13.40;;;;;;5125273;27;20199;-85
2022/06/20 12:25:37;;;;;;;8.32;4.47;;;30.20;14.20;;;;;;5066889;28;20621;-86
2022/06/20 12:28:18;;;;;;;5.45;4.30;;;29.90;14.80;;;;;;5063120;28;20212;-86
2022/06/20 12:31:12;;;;;;;8.32;4.50;;;29.90;16.60;;;;;;5074156;28;20538;-85
2022/06/20 12:33:43;;;;;;;14.25;5.15;;;30.40;16.80;;;;;;5065850;28;20599;-85
2022/06/20 12:36:38;;;;;;;10.57;5.10;;;30.50;15.70;;;;;;5075311;28;20209;-85
2022/06/20 12:39:12;;;;;;;10.18;4.88;;;30.50;15.90;;;;;;5065366;28;20196;-85
2022/06/20 12:41:44;;;;;;;9.48;4.63;;;30.60;15.80;;;;;;5072396;28;20220;-86
2022/06/20 12:44:35;;;;;;;8.57;5.10;;;30.60;16.10;;;;;;5073816;28;20204;-85
2022/06/20 12:47:41;;;;;;;12.35;5.40;;;30.70;16.20;;;;;;5073786;28;20201;-85
2022/06/20 12:50:21;;;;;;;8.82;4.75;;;30.80;17.00;;;;;;4999520;28;20203;-85
2022/06/20 12:53:01;;;;;;;10.68;5.40;;;31.20;15.20;;;;;;4995978;28;20209;-88
2022/06/20 12:55:41;;;;;;;10.98;4.80;;;31.60;14.40;;;;;;5005800;28;20202;-85
2022/06/20 12:58:28;;;;;;;10.18;4.90;;;31.70;13.60;;;;;;5007692;28;20686;-84
2022/06/20 13:00:58;;;;;;;12.50;4.50;;;31.60;13.20;;;;;;5056655;28;20201;-87
2022/06/20 13:03:58;;;;;;;10.30;4.45;;;31.40;13.00;;;;;;5059028;28;20289;-84
2022/06/20 13:06:58;;;;;;;13.23;4.53;;;31.30;13.30;;;;;;5049736;28;20204;-84
2022/06/20 13:09:54;;;;;;;9.18;4.40;;;30.80;13.30;;;;;;5059199;28;20202;-86
2022/06/20 13:12:36;;;;;;;9.52;4.65;;;30.60;14.10;;;;;;5061236;28;20209;-85
2022/06/20 13:15:29;;;;;;;9.60;4.80;;;30.90;16.10;;;;;;5058779;28;20220;-85
2022/06/20 13:18:26;;;;;;;12.02;4.65;;;30.70;15.10;;;;;;5047595;28;20197;-85
2022/06/20 13:21:16;;;;;;;11.75;4.72;;;30.90;14.60;;;;;;5050066;28;20213;-85
2022/06/20 13:24:26;;;;;;;11.60;4.60;;;30.70;14.40;;;;;;5055278;28;20431;-84
2022/06/20 13:27:28;;;;;;;11.80;4.80;;;30.80;14.10;;;;;;5087929;28;20218;-84
2022/06/20 13:30:02;;;;;;;6.47;4.35;;;30.80;13.40;;;;;;5135725;27;20200;-85
2022/06/20 13:32:49;;;;;;;11.95;4.88;;;30.70;15.20;;;;;;5125617;27;20210;-86
2022/06/20 13:35:43;;;;;;;8.55;4.05;;;30.80;13.90;;;;;;5131080;27;20202;-85
2022/06/20 13:38:16;;;;;;;10.40;4.93;;;30.60;14.70;;;;;;5120585;27;20206;-85
2022/06/20 13:41:08;;;;;;;9.13;4.75;;;30.80;15.30;;;;;;5126715;27;20222;-85
2022/06/20 13:43:52;;;;;;;11.40;4.53;;;30.90;16.00;;;;;;5133919;27;20585;-87
2022/06/20 13:46:36;;;;;;;8.15;4.35;;;31.00;13.60;;;;;;5130315;27;20199;-85
2022/06/20 13:49:09;;;;;;;7.85;4.65;;;30.80;14.80;;;;;;5121417;27;20205;-86
2022/06/20 13:51:46;;;;;;;6.10;4.25;;;30.40;13.70;;;;;;5122339;27;20204;-84
2022/06/20 13:54:25;;;;;;;12.90;4.40;;;30.10;14.80;;;;;;5128885;27;20657;-87
2022/06/20 13:57:07;;;;;;;12.05;4.70;;;30.40;13.80;;;;;;5123597;27;20206;-85
2022/06/20 13:59:53;;;;;;;12.40;4.82;;;30.50;15.50;;;;;;5123547;27;20206;-83
2022/06/20 14:02:43;;;;;;;13.52;4.72;;;30.40;14.60;;;;;;5129400;27;20222;-83
2022/06/20 14:05:29;;;;;;;11.52;4.88;;;30.40;13.60;;;;;;5124521;27;20203;-82
2022/06/20 14:08:19;;;;;;;10.40;4.30;;;30.40;14.20;;;;;;5126007;27;20202;-82
2022/06/20 14:10:50;;;;;;;8.32;3.97;;;30.20;14.70;;;;;;5130317;27;20191;-82